sensor_id;sensor_type;location;lat;lon;timestamp;P1;durP1;ratioP1;P2;durP2;ratioP2
28353;SDS011;15603;50.878;8.036;2023-06-14T00:01:59;10.77;;;5.07;;
28353;SDS011;15603;50.878;8.036;2023-06-14T00:04:26;10.00;;;5.28;;
28353;SDS011;15603;50.878;8.036;2023-06-14T00:06:53;9.93;;;5.43;;
28353;SDS011;15603;50.878;8.036;2023-06-14T00:09:23;18.65;;;5.97;;
28353;SDS011;15603;50.878;8.036;2023-06-14T00:11:50;9.32;;;5.43;;
28353;SDS011;15603;50.878;8.036;2023-06-14T00:14:17;11.98;;;6.00;;
28353;SDS011;15603;50.878;8.036;2023-06-14T00:16:45;12.45;;;6.55;;
28353;SDS011;15603;50.878;8.036;2023-06-14T00:19:12;14.70;;;5.95;;
28353;SDS011;15603;50.878;8.036;2023-06-14T00:21:39;12.43;;;5.60;;
28353;SDS011;15603;50.878;8.036;2023-06-14T00:24:07;11.35;;;5.53;;
28353;SDS011;15603;50.878;8.036;2023-06-14T00:26:35;14.63;;;6.63;;
28353;SDS011;15603;50.878;8.036;2023-06-14T00:29:03;8.90;;;5.28;;
28353;SDS011;15603;50.878;8.036;2023-06-14T00:31:30;12.27;;;5.45;;
28353;SDS011;15603;50.878;8.036;2023-06-14T00:33:57;12.75;;;5.45;;
28353;SDS011;15603;50.878;8.036;2023-06-14T00:36:24;26.52;;;8.02;;
28353;SDS011;15603;50.878;8.036;2023-06-14T00:38:51;10.52;;;5.25;;
28353;SDS011;15603;50.878;8.036;2023-06-14T00:41:19;11.50;;;5.30;;
28353;SDS011;15603;50.878;8.036;2023-06-14T00:43:48;11.27;;;5.30;;
28353;SDS011;15603;50.878;8.036;2023-06-14T00:46:17;13.48;;;5.95;;
28353;SDS011;15603;50.878;8.036;2023-06-14T00:48:46;7.00;;;4.50;;
28353;SDS011;15603;50.878;8.036;2023-06-14T00:51:14;9.77;;;5.43;;
28353;SDS011;15603;50.878;8.036;2023-06-14T00:53:41;8.48;;;4.45;;
28353;SDS011;15603;50.878;8.036;2023-06-14T00:56:13;7.80;;;4.28;;
28353;SDS011;15603;50.878;8.036;2023-06-14T00:58:41;8.70;;;4.90;;
28353;SDS011;15603;50.878;8.036;2023-06-14T01:01:09;7.80;;;3.70;;
28353;SDS011;15603;50.878;8.036;2023-06-14T01:03:37;9.38;;;4.22;;
28353;SDS011;15603;50.878;8.036;2023-06-14T01:06:17;10.32;;;4.65;;
28353;SDS011;15603;50.878;8.036;2023-06-14T01:11:54;9.30;;;4.63;;
28353;SDS011;15603;50.878;8.036;2023-06-14T01:14:28;7.68;;;4.57;;
28353;SDS011;15603;50.878;8.036;2023-06-14T01:16:58;11.40;;;4.57;;
28353;SDS011;15603;50.878;8.036;2023-06-14T01:19:29;18.23;;;4.88;;
28353;SDS011;15603;50.878;8.036;2023-06-14T01:21:59;10.55;;;5.13;;
28353;SDS011;15603;50.878;8.036;2023-06-14T01:24:28;11.82;;;5.57;;
28353;SDS011;15603;50.878;8.036;2023-06-14T01:26:59;10.40;;;4.80;;
28353;SDS011;15603;50.878;8.036;2023-06-14T01:29:27;8.70;;;4.78;;
28353;SDS011;15603;50.878;8.036;2023-06-14T01:31:59;6.35;;;3.75;;
28353;SDS011;15603;50.878;8.036;2023-06-14T01:34:30;10.02;;;4.85;;
28353;SDS011;15603;50.878;8.036;2023-06-14T01:36:58;6.82;;;4.38;;
28353;SDS011;15603;50.878;8.036;2023-06-14T01:39:27;8.65;;;4.53;;
28353;SDS011;15603;50.878;8.036;2023-06-14T01:41:55;8.18;;;4.07;;
28353;SDS011;15603;50.878;8.036;2023-06-14T01:44:22;7.30;;;4.30;;
28353;SDS011;15603;50.878;8.036;2023-06-14T01:46:50;6.68;;;4.13;;
28353;SDS011;15603;50.878;8.036;2023-06-14T01:49:17;8.80;;;4.30;;
28353;SDS011;15603;50.878;8.036;2023-06-14T01:51:45;12.73;;;5.50;;
28353;SDS011;15603;50.878;8.036;2023-06-14T01:54:14;7.53;;;4.57;;
28353;SDS011;15603;50.878;8.036;2023-06-14T01:56:41;7.25;;;3.83;;
28353;SDS011;15603;50.878;8.036;2023-06-14T01:59:09;15.35;;;5.05;;
28353;SDS011;15603;50.878;8.036;2023-06-14T02:01:37;9.73;;;4.28;;
28353;SDS011;15603;50.878;8.036;2023-06-14T02:04:05;13.20;;;4.00;;
28353;SDS011;15603;50.878;8.036;2023-06-14T02:06:33;11.02;;;4.30;;
28353;SDS011;15603;50.878;8.036;2023-06-14T02:09:01;11.75;;;4.10;;
28353;SDS011;15603;50.878;8.036;2023-06-14T02:11:29;11.32;;;4.45;;
28353;SDS011;15603;50.878;8.036;2023-06-14T02:13:57;11.00;;;4.32;;
28353;SDS011;15603;50.878;8.036;2023-06-14T02:16:26;9.27;;;4.10;;
28353;SDS011;15603;50.878;8.036;2023-06-14T02:18:55;11.18;;;4.10;;
28353;SDS011;15603;50.878;8.036;2023-06-14T02:21:23;6.60;;;3.67;;
28353;SDS011;15603;50.878;8.036;2023-06-14T02:23:50;10.25;;;3.88;;
28353;SDS011;15603;50.878;8.036;2023-06-14T02:26:17;12.32;;;5.70;;
28353;SDS011;15603;50.878;8.036;2023-06-14T02:28:44;17.15;;;5.38;;
28353;SDS011;15603;50.878;8.036;2023-06-14T02:31:12;7.45;;;4.05;;
28353;SDS011;15603;50.878;8.036;2023-06-14T02:33:40;10.27;;;3.40;;
28353;SDS011;15603;50.878;8.036;2023-06-14T02:36:07;9.18;;;3.70;;
28353;SDS011;15603;50.878;8.036;2023-06-14T02:38:34;5.78;;;3.30;;
28353;SDS011;15603;50.878;8.036;2023-06-14T02:41:01;19.30;;;4.07;;
28353;SDS011;15603;50.878;8.036;2023-06-14T02:43:29;12.40;;;3.78;;
28353;SDS011;15603;50.878;8.036;2023-06-14T02:45:58;10.82;;;4.15;;
28353;SDS011;15603;50.878;8.036;2023-06-14T02:48:25;8.32;;;3.78;;
28353;SDS011;15603;50.878;8.036;2023-06-14T02:50:52;9.98;;;3.50;;
28353;SDS011;15603;50.878;8.036;2023-06-14T02:53:19;7.70;;;3.47;;
28353;SDS011;15603;50.878;8.036;2023-06-14T02:55:47;5.13;;;3.22;;
28353;SDS011;15603;50.878;8.036;2023-06-14T02:58:17;8.95;;;3.35;;
28353;SDS011;15603;50.878;8.036;2023-06-14T03:00:45;16.38;;;3.90;;
28353;SDS011;15603;50.878;8.036;2023-06-14T03:03:12;8.57;;;3.60;;
28353;SDS011;15603;50.878;8.036;2023-06-14T03:05:50;11.18;;;3.92;;
28353;SDS011;15603;50.878;8.036;2023-06-14T03:08:22;16.33;;;4.00;;
28353;SDS011;15603;50.878;8.036;2023-06-14T03:13:24;12.23;;;3.88;;
28353;SDS011;15603;50.878;8.036;2023-06-14T03:15:51;6.80;;;3.58;;
28353;SDS011;15603;50.878;8.036;2023-06-14T03:18:20;5.93;;;3.58;;
28353;SDS011;15603;50.878;8.036;2023-06-14T03:20:53;11.82;;;3.50;;
28353;SDS011;15603;50.878;8.036;2023-06-14T03:23:21;12.13;;;3.88;;
28353;SDS011;15603;50.878;8.036;2023-06-14T03:25:48;8.32;;;3.70;;
28353;SDS011;15603;50.878;8.036;2023-06-14T03:28:17;9.75;;;3.53;;
28353;SDS011;15603;50.878;8.036;2023-06-14T03:30:45;10.75;;;3.50;;
28353;SDS011;15603;50.878;8.036;2023-06-14T03:33:13;8.10;;;3.50;;
28353;SDS011;15603;50.878;8.036;2023-06-14T03:35:44;9.73;;;4.00;;
28353;SDS011;15603;50.878;8.036;2023-06-14T03:38:12;10.77;;;4.05;;
28353;SDS011;15603;50.878;8.036;2023-06-14T03:40:40;13.60;;;3.92;;
28353;SDS011;15603;50.878;8.036;2023-06-14T03:43:07;7.85;;;4.00;;
28353;SDS011;15603;50.878;8.036;2023-06-14T03:45:34;13.63;;;3.75;;
28353;SDS011;15603;50.878;8.036;2023-06-14T03:48:02;6.72;;;3.72;;
28353;SDS011;15603;50.878;8.036;2023-06-14T03:50:30;15.60;;;4.20;;
28353;SDS011;15603;50.878;8.036;2023-06-14T03:52:59;11.20;;;4.10;;
28353;SDS011;15603;50.878;8.036;2023-06-14T03:55:28;8.70;;;3.67;;
28353;SDS011;15603;50.878;8.036;2023-06-14T03:58:01;8.43;;;3.97;;
28353;SDS011;15603;50.878;8.036;2023-06-14T04:00:29;8.77;;;3.58;;
28353;SDS011;15603;50.878;8.036;2023-06-14T04:02:58;12.00;;;4.10;;
28353;SDS011;15603;50.878;8.036;2023-06-14T04:05:25;6.35;;;3.58;;
28353;SDS011;15603;50.878;8.036;2023-06-14T04:07:56;12.48;;;3.88;;
28353;SDS011;15603;50.878;8.036;2023-06-14T04:10:24;9.07;;;4.00;;
28353;SDS011;15603;50.878;8.036;2023-06-14T04:12:52;13.57;;;4.03;;
28353;SDS011;15603;50.878;8.036;2023-06-14T04:15:19;5.88;;;3.78;;
28353;SDS011;15603;50.878;8.036;2023-06-14T04:17:51;13.50;;;3.50;;
28353;SDS011;15603;50.878;8.036;2023-06-14T04:20:21;12.57;;;4.07;;
28353;SDS011;15603;50.878;8.036;2023-06-14T04:22:49;12.15;;;3.95;;
28353;SDS011;15603;50.878;8.036;2023-06-14T04:25:17;9.63;;;3.55;;
28353;SDS011;15603;50.878;8.036;2023-06-14T04:27:50;9.82;;;4.00;;
28353;SDS011;15603;50.878;8.036;2023-06-14T04:30:19;20.05;;;3.65;;
28353;SDS011;15603;50.878;8.036;2023-06-14T04:32:50;8.18;;;3.88;;
28353;SDS011;15603;50.878;8.036;2023-06-14T04:35:22;8.43;;;3.95;;
28353;SDS011;15603;50.878;8.036;2023-06-14T04:37:51;16.27;;;4.85;;
28353;SDS011;15603;50.878;8.036;2023-06-14T04:40:20;13.23;;;3.90;;
28353;SDS011;15603;50.878;8.036;2023-06-14T04:42:48;11.85;;;4.15;;
28353;SDS011;15603;50.878;8.036;2023-06-14T04:45:17;12.25;;;3.63;;
28353;SDS011;15603;50.878;8.036;2023-06-14T04:47:46;11.48;;;3.85;;
28353;SDS011;15603;50.878;8.036;2023-06-14T04:50:13;4.63;;;2.90;;
28353;SDS011;15603;50.878;8.036;2023-06-14T04:52:41;9.40;;;3.28;;
28353;SDS011;15603;50.878;8.036;2023-06-14T04:55:11;17.20;;;3.00;;
28353;SDS011;15603;50.878;8.036;2023-06-14T04:57:38;15.00;;;3.05;;
28353;SDS011;15603;50.878;8.036;2023-06-14T05:00:08;10.85;;;3.55;;
28353;SDS011;15603;50.878;8.036;2023-06-14T05:02:39;10.05;;;3.28;;
28353;SDS011;15603;50.878;8.036;2023-06-14T05:05:07;9.82;;;3.53;;
28353;SDS011;15603;50.878;8.036;2023-06-14T05:07:36;8.93;;;3.42;;
28353;SDS011;15603;50.878;8.036;2023-06-14T05:10:08;6.73;;;3.50;;
28353;SDS011;15603;50.878;8.036;2023-06-14T05:12:35;11.77;;;3.40;;
28353;SDS011;15603;50.878;8.036;2023-06-14T05:15:04;14.07;;;3.58;;
28353;SDS011;15603;50.878;8.036;2023-06-14T05:17:31;11.40;;;3.67;;
28353;SDS011;15603;50.878;8.036;2023-06-14T05:20:00;16.05;;;3.55;;
28353;SDS011;15603;50.878;8.036;2023-06-14T05:22:27;13.25;;;3.10;;
28353;SDS011;15603;50.878;8.036;2023-06-14T05:24:54;7.70;;;3.08;;
28353;SDS011;15603;50.878;8.036;2023-06-14T05:27:21;11.63;;;2.90;;
28353;SDS011;15603;50.878;8.036;2023-06-14T05:29:48;10.07;;;2.70;;
28353;SDS011;15603;50.878;8.036;2023-06-14T05:32:16;6.63;;;2.78;;
28353;SDS011;15603;50.878;8.036;2023-06-14T05:34:43;12.68;;;2.15;;
28353;SDS011;15603;50.878;8.036;2023-06-14T05:37:11;5.30;;;1.77;;
28353;SDS011;15603;50.878;8.036;2023-06-14T05:39:38;9.02;;;2.20;;
28353;SDS011;15603;50.878;8.036;2023-06-14T05:42:05;3.65;;;2.08;;
28353;SDS011;15603;50.878;8.036;2023-06-14T05:44:33;3.88;;;1.60;;
28353;SDS011;15603;50.878;8.036;2023-06-14T05:47:00;8.18;;;1.65;;
28353;SDS011;15603;50.878;8.036;2023-06-14T05:49:27;10.15;;;1.90;;
28353;SDS011;15603;50.878;8.036;2023-06-14T05:51:54;2.63;;;1.70;;
28353;SDS011;15603;50.878;8.036;2023-06-14T05:54:21;4.35;;;1.80;;
28353;SDS011;15603;50.878;8.036;2023-06-14T05:56:48;8.57;;;1.58;;
28353;SDS011;15603;50.878;8.036;2023-06-14T05:59:16;5.68;;;1.77;;
28353;SDS011;15603;50.878;8.036;2023-06-14T06:01:43;5.55;;;1.58;;
28353;SDS011;15603;50.878;8.036;2023-06-14T06:04:10;3.15;;;1.42;;
28353;SDS011;15603;50.878;8.036;2023-06-14T06:06:38;7.30;;;1.48;;
28353;SDS011;15603;50.878;8.036;2023-06-14T06:09:06;12.50;;;1.77;;
28353;SDS011;15603;50.878;8.036;2023-06-14T06:11:34;9.52;;;1.77;;
28353;SDS011;15603;50.878;8.036;2023-06-14T06:14:18;4.90;;;1.77;;
28353;SDS011;15603;50.878;8.036;2023-06-14T06:16:45;8.00;;;2.28;;
28353;SDS011;15603;50.878;8.036;2023-06-14T06:19:13;11.52;;;1.75;;
28353;SDS011;15603;50.878;8.036;2023-06-14T06:21:40;9.35;;;1.63;;
28353;SDS011;15603;50.878;8.036;2023-06-14T06:24:07;13.27;;;1.33;;
28353;SDS011;15603;50.878;8.036;2023-06-14T06:26:35;4.20;;;1.45;;
28353;SDS011;15603;50.878;8.036;2023-06-14T06:29:03;6.88;;;1.42;;
28353;SDS011;15603;50.878;8.036;2023-06-14T06:31:30;8.27;;;1.40;;
28353;SDS011;15603;50.878;8.036;2023-06-14T06:33:57;5.57;;;1.33;;
28353;SDS011;15603;50.878;8.036;2023-06-14T06:36:25;6.63;;;1.30;;
28353;SDS011;15603;50.878;8.036;2023-06-14T06:38:52;3.63;;;1.20;;
28353;SDS011;15603;50.878;8.036;2023-06-14T06:41:19;4.43;;;1.63;;
28353;SDS011;15603;50.878;8.036;2023-06-14T06:43:46;10.43;;;1.30;;
28353;SDS011;15603;50.878;8.036;2023-06-14T06:46:16;6.38;;;1.50;;
28353;SDS011;15603;50.878;8.036;2023-06-14T06:48:45;2.38;;;0.95;;
28353;SDS011;15603;50.878;8.036;2023-06-14T06:51:13;20.67;;;1.80;;
28353;SDS011;15603;50.878;8.036;2023-06-14T06:53:41;4.25;;;1.20;;
28353;SDS011;15603;50.878;8.036;2023-06-14T06:56:16;6.25;;;1.40;;
28353;SDS011;15603;50.878;8.036;2023-06-14T06:58:43;6.25;;;1.40;;
28353;SDS011;15603;50.878;8.036;2023-06-14T07:01:10;3.15;;;1.30;;
28353;SDS011;15603;50.878;8.036;2023-06-14T07:03:38;6.07;;;1.48;;
28353;SDS011;15603;50.878;8.036;2023-06-14T07:06:07;3.38;;;1.40;;
28353;SDS011;15603;50.878;8.036;2023-06-14T07:08:36;2.90;;;1.30;;
28353;SDS011;15603;50.878;8.036;2023-06-14T07:11:05;2.08;;;1.73;;
28353;SDS011;15603;50.878;8.036;2023-06-14T07:13:32;5.00;;;1.60;;
28353;SDS011;15603;50.878;8.036;2023-06-14T07:16:00;2.58;;;1.33;;
28353;SDS011;15603;50.878;8.036;2023-06-14T07:18:28;2.88;;;1.30;;
28353;SDS011;15603;50.878;8.036;2023-06-14T07:20:55;4.93;;;1.20;;
28353;SDS011;15603;50.878;8.036;2023-06-14T07:23:24;1.60;;;1.10;;
28353;SDS011;15603;50.878;8.036;2023-06-14T07:25:52;3.47;;;1.20;;
28353;SDS011;15603;50.878;8.036;2023-06-14T07:28:19;3.65;;;1.20;;
28353;SDS011;15603;50.878;8.036;2023-06-14T07:30:46;4.18;;;1.45;;
28353;SDS011;15603;50.878;8.036;2023-06-14T07:33:15;3.35;;;0.98;;
28353;SDS011;15603;50.878;8.036;2023-06-14T07:35:42;5.00;;;1.13;;
28353;SDS011;15603;50.878;8.036;2023-06-14T07:38:09;3.17;;;0.90;;
28353;SDS011;15603;50.878;8.036;2023-06-14T07:40:36;8.32;;;1.40;;
28353;SDS011;15603;50.878;8.036;2023-06-14T07:43:03;5.32;;;1.25;;
28353;SDS011;15603;50.878;8.036;2023-06-14T07:45:31;3.00;;;1.25;;
28353;SDS011;15603;50.878;8.036;2023-06-14T07:47:58;1.65;;;0.90;;
28353;SDS011;15603;50.878;8.036;2023-06-14T07:50:25;1.38;;;0.93;;
28353;SDS011;15603;50.878;8.036;2023-06-14T07:52:52;1.77;;;1.00;;
28353;SDS011;15603;50.878;8.036;2023-06-14T07:55:20;1.58;;;0.93;;
28353;SDS011;15603;50.878;8.036;2023-06-14T07:57:47;1.30;;;0.80;;
28353;SDS011;15603;50.878;8.036;2023-06-14T08:00:14;8.85;;;1.30;;
28353;SDS011;15603;50.878;8.036;2023-06-14T08:02:42;7.80;;;1.05;;
28353;SDS011;15603;50.878;8.036;2023-06-14T08:05:10;6.05;;;0.95;;
28353;SDS011;15603;50.878;8.036;2023-06-14T08:07:39;3.50;;;0.85;;
28353;SDS011;15603;50.878;8.036;2023-06-14T08:10:07;7.25;;;0.65;;
28353;SDS011;15603;50.878;8.036;2023-06-14T08:12:35;3.97;;;0.73;;
28353;SDS011;15603;50.878;8.036;2023-06-14T08:15:03;1.27;;;0.52;;
28353;SDS011;15603;50.878;8.036;2023-06-14T08:17:42;3.00;;;0.70;;
28353;SDS011;15603;50.878;8.036;2023-06-14T08:20:09;5.75;;;1.77;;
28353;SDS011;15603;50.878;8.036;2023-06-14T08:22:38;2.72;;;0.90;;
28353;SDS011;15603;50.878;8.036;2023-06-14T08:25:06;0.70;;;0.70;;
28353;SDS011;15603;50.878;8.036;2023-06-14T08:27:34;12.15;;;1.00;;
28353;SDS011;15603;50.878;8.036;2023-06-14T08:30:02;0.80;;;0.60;;
28353;SDS011;15603;50.878;8.036;2023-06-14T08:32:30;3.15;;;1.15;;
28353;SDS011;15603;50.878;8.036;2023-06-14T08:34:57;1.55;;;0.65;;
28353;SDS011;15603;50.878;8.036;2023-06-14T08:37:31;2.25;;;0.90;;
28353;SDS011;15603;50.878;8.036;2023-06-14T08:40:00;2.05;;;0.90;;
28353;SDS011;15603;50.878;8.036;2023-06-14T08:42:30;1.65;;;0.95;;
28353;SDS011;15603;50.878;8.036;2023-06-14T08:44:59;0.90;;;0.70;;
28353;SDS011;15603;50.878;8.036;2023-06-14T08:47:26;6.65;;;0.85;;
28353;SDS011;15603;50.878;8.036;2023-06-14T08:49:56;2.30;;;1.15;;
28353;SDS011;15603;50.878;8.036;2023-06-14T08:52:25;2.63;;;0.88;;
28353;SDS011;15603;50.878;8.036;2023-06-14T08:54:57;5.33;;;0.77;;
28353;SDS011;15603;50.878;8.036;2023-06-14T08:57:24;0.75;;;0.70;;
28353;SDS011;15603;50.878;8.036;2023-06-14T08:59:52;4.30;;;0.73;;
28353;SDS011;15603;50.878;8.036;2023-06-14T09:02:22;7.50;;;0.70;;
28353;SDS011;15603;50.878;8.036;2023-06-14T09:04:53;4.32;;;0.85;;
28353;SDS011;15603;50.878;8.036;2023-06-14T09:07:20;3.35;;;0.88;;
28353;SDS011;15603;50.878;8.036;2023-06-14T09:09:47;4.05;;;0.90;;
28353;SDS011;15603;50.878;8.036;2023-06-14T09:12:32;2.65;;;0.85;;
28353;SDS011;15603;50.878;8.036;2023-06-14T09:14:59;3.35;;;0.80;;
28353;SDS011;15603;50.878;8.036;2023-06-14T09:17:26;3.95;;;0.77;;
28353;SDS011;15603;50.878;8.036;2023-06-14T09:19:55;3.38;;;0.80;;
28353;SDS011;15603;50.878;8.036;2023-06-14T09:22:22;4.20;;;0.75;;
28353;SDS011;15603;50.878;8.036;2023-06-14T09:24:49;1.48;;;0.73;;
28353;SDS011;15603;50.878;8.036;2023-06-14T09:27:16;0.70;;;0.40;;
28353;SDS011;15603;50.878;8.036;2023-06-14T09:29:44;1.15;;;0.75;;
28353;SDS011;15603;50.878;8.036;2023-06-14T09:32:11;0.88;;;0.60;;
28353;SDS011;15603;50.878;8.036;2023-06-14T09:34:39;3.25;;;0.90;;
28353;SDS011;15603;50.878;8.036;2023-06-14T09:37:06;2.38;;;0.90;;
28353;SDS011;15603;50.878;8.036;2023-06-14T09:39:33;2.25;;;0.60;;
28353;SDS011;15603;50.878;8.036;2023-06-14T09:42:01;1.67;;;0.60;;
28353;SDS011;15603;50.878;8.036;2023-06-14T09:44:47;6.90;;;0.80;;
28353;SDS011;15603;50.878;8.036;2023-06-14T09:47:15;2.05;;;0.70;;
28353;SDS011;15603;50.878;8.036;2023-06-14T09:49:43;1.58;;;0.80;;
28353;SDS011;15603;50.878;8.036;2023-06-14T09:52:13;0.65;;;0.55;;
28353;SDS011;15603;50.878;8.036;2023-06-14T09:54:43;0.90;;;0.60;;
28353;SDS011;15603;50.878;8.036;2023-06-14T09:57:15;6.28;;;0.90;;
28353;SDS011;15603;50.878;8.036;2023-06-14T09:59:44;6.45;;;0.90;;
28353;SDS011;15603;50.878;8.036;2023-06-14T10:05:06;2.05;;;0.82;;
28353;SDS011;15603;50.878;8.036;2023-06-14T10:07:39;5.70;;;1.10;;
28353;SDS011;15603;50.878;8.036;2023-06-14T10:10:09;2.78;;;0.93;;
28353;SDS011;15603;50.878;8.036;2023-06-14T10:12:37;1.15;;;0.82;;
28353;SDS011;15603;50.878;8.036;2023-06-14T10:15:05;4.68;;;0.80;;
28353;SDS011;15603;50.878;8.036;2023-06-14T10:17:45;4.63;;;0.82;;
28353;SDS011;15603;50.878;8.036;2023-06-14T10:23:03;4.95;;;1.45;;
28353;SDS011;15603;50.878;8.036;2023-06-14T10:25:37;7.70;;;1.23;;
28353;SDS011;15603;50.878;8.036;2023-06-14T10:28:20;1.25;;;0.98;;
28353;SDS011;15603;50.878;8.036;2023-06-14T10:31:09;3.92;;;1.27;;
28353;SDS011;15603;50.878;8.036;2023-06-14T10:41:38;6.05;;;1.17;;
28353;SDS011;15603;50.878;8.036;2023-06-14T10:46:39;4.38;;;1.50;;
28353;SDS011;15603;50.878;8.036;2023-06-14T10:49:09;7.25;;;1.20;;
28353;SDS011;15603;50.878;8.036;2023-06-14T10:51:41;7.65;;;1.17;;
28353;SDS011;15603;50.878;8.036;2023-06-14T10:54:12;7.50;;;1.13;;
28353;SDS011;15603;50.878;8.036;2023-06-14T10:56:46;5.00;;;1.05;;
28353;SDS011;15603;50.878;8.036;2023-06-14T10:59:19;2.85;;;1.05;;
28353;SDS011;15603;50.878;8.036;2023-06-14T11:01:57;2.20;;;1.17;;
28353;SDS011;15603;50.878;8.036;2023-06-14T11:04:49;2.47;;;0.73;;
28353;SDS011;15603;50.878;8.036;2023-06-14T11:12:36;3.33;;;0.90;;
28353;SDS011;15603;50.878;8.036;2023-06-14T11:15:06;2.63;;;1.27;;
28353;SDS011;15603;50.878;8.036;2023-06-14T11:17:34;5.78;;;1.00;;
28353;SDS011;15603;50.878;8.036;2023-06-14T11:20:09;1.55;;;0.98;;
28353;SDS011;15603;50.878;8.036;2023-06-14T11:22:49;4.03;;;1.10;;
28353;SDS011;15603;50.878;8.036;2023-06-14T11:25:16;1.95;;;1.10;;
28353;SDS011;15603;50.878;8.036;2023-06-14T11:27:44;4.75;;;0.98;;
28353;SDS011;15603;50.878;8.036;2023-06-14T11:30:13;4.15;;;1.17;;
28353;SDS011;15603;50.878;8.036;2023-06-14T11:32:40;8.98;;;1.25;;
28353;SDS011;15603;50.878;8.036;2023-06-14T11:35:07;2.55;;;1.08;;
28353;SDS011;15603;50.878;8.036;2023-06-14T11:37:36;10.55;;;1.40;;
28353;SDS011;15603;50.878;8.036;2023-06-14T11:40:08;2.22;;;1.20;;
28353;SDS011;15603;50.878;8.036;2023-06-14T11:42:36;2.47;;;1.00;;
28353;SDS011;15603;50.878;8.036;2023-06-14T11:45:07;2.10;;;1.27;;
28353;SDS011;15603;50.878;8.036;2023-06-14T11:47:36;6.33;;;0.90;;
28353;SDS011;15603;50.878;8.036;2023-06-14T11:50:06;6.97;;;1.00;;
28353;SDS011;15603;50.878;8.036;2023-06-14T11:52:38;2.30;;;0.93;;
28353;SDS011;15603;50.878;8.036;2023-06-14T11:55:05;1.02;;;0.88;;
28353;SDS011;15603;50.878;8.036;2023-06-14T11:57:33;0.93;;;0.80;;
28353;SDS011;15603;50.878;8.036;2023-06-14T12:00:08;9.45;;;1.15;;
28353;SDS011;15603;50.878;8.036;2023-06-14T12:02:39;2.05;;;1.02;;
28353;SDS011;15603;50.878;8.036;2023-06-14T12:05:08;2.38;;;0.93;;
28353;SDS011;15603;50.878;8.036;2023-06-14T12:07:37;3.53;;;1.33;;
28353;SDS011;15603;50.878;8.036;2023-06-14T12:10:07;2.97;;;1.42;;
28353;SDS011;15603;50.878;8.036;2023-06-14T12:12:36;6.30;;;0.95;;
28353;SDS011;15603;50.878;8.036;2023-06-14T12:15:06;1.38;;;0.90;;
28353;SDS011;15603;50.878;8.036;2023-06-14T12:17:35;3.90;;;1.05;;
28353;SDS011;15603;50.878;8.036;2023-06-14T12:20:06;3.53;;;1.23;;
28353;SDS011;15603;50.878;8.036;2023-06-14T12:22:52;2.88;;;1.20;;
28353;SDS011;15603;50.878;8.036;2023-06-14T12:25:26;4.20;;;0.95;;
28353;SDS011;15603;50.878;8.036;2023-06-14T12:27:58;2.78;;;1.33;;
28353;SDS011;15603;50.878;8.036;2023-06-14T12:30:26;13.27;;;0.93;;
28353;SDS011;15603;50.878;8.036;2023-06-14T12:32:54;10.10;;;1.20;;
28353;SDS011;15603;50.878;8.036;2023-06-14T12:35:24;3.25;;;1.08;;
28353;SDS011;15603;50.878;8.036;2023-06-14T12:37:51;3.55;;;1.08;;
28353;SDS011;15603;50.878;8.036;2023-06-14T12:40:21;1.27;;;1.00;;
28353;SDS011;15603;50.878;8.036;2023-06-14T12:42:49;3.50;;;0.98;;
28353;SDS011;15603;50.878;8.036;2023-06-14T12:45:16;4.68;;;1.10;;
28353;SDS011;15603;50.878;8.036;2023-06-14T12:47:44;5.20;;;0.95;;
28353;SDS011;15603;50.878;8.036;2023-06-14T12:50:11;6.50;;;1.50;;
28353;SDS011;15603;50.878;8.036;2023-06-14T12:52:38;1.52;;;1.05;;
28353;SDS011;15603;50.878;8.036;2023-06-14T12:55:05;5.57;;;1.58;;
28353;SDS011;15603;50.878;8.036;2023-06-14T12:57:33;2.28;;;1.20;;
28353;SDS011;15603;50.878;8.036;2023-06-14T13:00:04;3.38;;;1.10;;
28353;SDS011;15603;50.878;8.036;2023-06-14T13:02:32;4.60;;;0.80;;
28353;SDS011;15603;50.878;8.036;2023-06-14T13:05:00;1.77;;;0.93;;
28353;SDS011;15603;50.878;8.036;2023-06-14T13:07:29;7.35;;;1.00;;
28353;SDS011;15603;50.878;8.036;2023-06-14T13:09:56;2.95;;;1.02;;
28353;SDS011;15603;50.878;8.036;2023-06-14T13:12:23;5.38;;;1.75;;
28353;SDS011;15603;50.878;8.036;2023-06-14T13:14:51;3.35;;;1.48;;
28353;SDS011;15603;50.878;8.036;2023-06-14T13:17:18;1.00;;;0.88;;
28353;SDS011;15603;50.878;8.036;2023-06-14T13:19:45;1.08;;;0.95;;
28353;SDS011;15603;50.878;8.036;2023-06-14T13:22:12;2.30;;;1.13;;
28353;SDS011;15603;50.878;8.036;2023-06-14T13:24:42;2.28;;;0.93;;
28353;SDS011;15603;50.878;8.036;2023-06-14T13:27:09;1.17;;;1.02;;
28353;SDS011;15603;50.878;8.036;2023-06-14T13:29:37;2.03;;;1.20;;
28353;SDS011;15603;50.878;8.036;2023-06-14T13:32:04;3.17;;;1.10;;
28353;SDS011;15603;50.878;8.036;2023-06-14T13:34:32;4.05;;;1.27;;
28353;SDS011;15603;50.878;8.036;2023-06-14T13:36:59;4.07;;;1.30;;
28353;SDS011;15603;50.878;8.036;2023-06-14T13:39:26;12.45;;;2.05;;
28353;SDS011;15603;50.878;8.036;2023-06-14T13:41:53;5.70;;;1.20;;
28353;SDS011;15603;50.878;8.036;2023-06-14T13:44:20;7.13;;;1.08;;
28353;SDS011;15603;50.878;8.036;2023-06-14T13:46:48;2.42;;;1.30;;
28353;SDS011;15603;50.878;8.036;2023-06-14T13:49:15;12.50;;;1.35;;
28353;SDS011;15603;50.878;8.036;2023-06-14T13:51:43;1.48;;;1.15;;
28353;SDS011;15603;50.878;8.036;2023-06-14T13:54:12;5.85;;;1.10;;
28353;SDS011;15603;50.878;8.036;2023-06-14T13:56:41;2.40;;;1.30;;
28353;SDS011;15603;50.878;8.036;2023-06-14T13:59:09;2.30;;;1.02;;
28353;SDS011;15603;50.878;8.036;2023-06-14T14:01:37;2.50;;;1.40;;
28353;SDS011;15603;50.878;8.036;2023-06-14T14:04:05;2.30;;;1.30;;
28353;SDS011;15603;50.878;8.036;2023-06-14T14:06:32;2.92;;;1.33;;
28353;SDS011;15603;50.878;8.036;2023-06-14T14:08:59;2.25;;;1.00;;
28353;SDS011;15603;50.878;8.036;2023-06-14T14:11:27;2.50;;;1.25;;
28353;SDS011;15603;50.878;8.036;2023-06-14T14:13:54;1.45;;;1.20;;
28353;SDS011;15603;50.878;8.036;2023-06-14T14:16:22;1.70;;;1.30;;
28353;SDS011;15603;50.878;8.036;2023-06-14T14:18:50;2.30;;;1.30;;
28353;SDS011;15603;50.878;8.036;2023-06-14T14:21:17;1.45;;;1.13;;
28353;SDS011;15603;50.878;8.036;2023-06-14T14:23:44;3.08;;;1.40;;
28353;SDS011;15603;50.878;8.036;2023-06-14T14:26:12;2.20;;;1.38;;
28353;SDS011;15603;50.878;8.036;2023-06-14T14:28:39;1.92;;;1.10;;
28353;SDS011;15603;50.878;8.036;2023-06-14T14:31:06;1.42;;;0.90;;
28353;SDS011;15603;50.878;8.036;2023-06-14T14:33:34;1.60;;;0.90;;
28353;SDS011;15603;50.878;8.036;2023-06-14T14:36:02;8.32;;;1.25;;
28353;SDS011;15603;50.878;8.036;2023-06-14T14:38:31;5.07;;;1.05;;
28353;SDS011;15603;50.878;8.036;2023-06-14T14:40:58;2.53;;;1.20;;
28353;SDS011;15603;50.878;8.036;2023-06-14T14:43:27;3.38;;;1.17;;
28353;SDS011;15603;50.878;8.036;2023-06-14T14:45:57;3.58;;;1.02;;
28353;SDS011;15603;50.878;8.036;2023-06-14T14:48:24;3.35;;;1.00;;
28353;SDS011;15603;50.878;8.036;2023-06-14T14:50:51;5.53;;;1.23;;
28353;SDS011;15603;50.878;8.036;2023-06-14T14:53:19;1.95;;;1.20;;
28353;SDS011;15603;50.878;8.036;2023-06-14T14:55:46;2.75;;;1.33;;
28353;SDS011;15603;50.878;8.036;2023-06-14T14:58:13;3.92;;;0.90;;
28353;SDS011;15603;50.878;8.036;2023-06-14T15:00:45;5.90;;;1.20;;
28353;SDS011;15603;50.878;8.036;2023-06-14T15:03:13;3.97;;;1.33;;
28353;SDS011;15603;50.878;8.036;2023-06-14T15:05:41;3.80;;;1.63;;
28353;SDS011;15603;50.878;8.036;2023-06-14T15:08:08;1.23;;;0.90;;
28353;SDS011;15603;50.878;8.036;2023-06-14T15:10:39;2.28;;;1.20;;
28353;SDS011;15603;50.878;8.036;2023-06-14T15:13:08;4.70;;;1.52;;
28353;SDS011;15603;50.878;8.036;2023-06-14T15:15:35;5.68;;;1.27;;
28353;SDS011;15603;50.878;8.036;2023-06-14T15:18:03;12.43;;;1.50;;
28353;SDS011;15603;50.878;8.036;2023-06-14T15:20:31;8.52;;;1.70;;
28353;SDS011;15603;50.878;8.036;2023-06-14T15:22:58;4.10;;;1.60;;